Time;durP1;ratioP1;P1;durP2;ratioP2;P2;SDS_P1;SDS_P2;PMS_P1;PMS_P2;Temp;Humidity;BMP_temperature;BMP_pressure;BME280_temperature;BME280_humidity;BME280_pressure;Samples;Min_cycle;Max_cycle;Signal;HPM_P1;HPM_P2
2022/10/18 00:00:29;;;;;;;3.60;2.35;;;;;;;2.09;70.98;97687.09;6297831;28;19920;-69
2022/10/18 00:03:34;;;;;;;3.53;2.50;;;;;;;2.03;71.11;97692.41;6297306;28;20048;-70
2022/10/18 00:06:38;;;;;;;3.47;2.55;;;;;;;2.01;71.73;97686.41;6297486;28;20499;-69
2022/10/18 00:09:41;;;;;;;;;;;;;;;2.08;70.93;97690.59;6298003;28;20573;-70
2022/10/18 00:12:46;;;;;;;4.15;2.47;;;;;;;2.15;71.01;97679.22;6296293;28;19916;-70
2022/10/18 00:15:52;;;;;;;;;;;;;;;2.05;70.86;97675.06;6296722;28;20070;-69
2022/10/18 00:18:58;;;;;;;2.80;2.38;;;;;;;1.97;71.32;97663.97;6297044;28;19921;-70
2022/10/18 00:22:05;;;;;;;3.25;2.35;;;;;;;1.85;71.79;97666.78;6297420;28;20036;-68
2022/10/18 00:25:10;;;;;;;4.13;2.90;;;;;;;1.83;71.67;97668.56;6297197;28;20498;-70
2022/10/18 00:28:17;;;;;;;2.85;2.53;;;;;;;1.71;72.00;97665.28;6296896;28;20047;-69
2022/10/18 00:31:28;;;;;;;3.50;3.00;;;;;;;1.63;71.99;97661.97;6295740;28;20045;-71
2022/10/18 00:34:33;;;;;;;3.08;2.78;;;;;;;1.72;71.73;97664.41;6296242;28;20044;-69
2022/10/18 00:37:37;;;;;;;4.53;2.63;;;;;;;1.53;72.21;97653.50;6295660;28;20041;-69
2022/10/18 00:40:42;;;;;;;4.25;2.63;;;;;;;1.47;71.98;97644.94;6296703;28;20452;-69
2022/10/18 00:44:09;;;;;;;5.63;3.20;;;;;;;1.53;71.65;97644.84;6296635;28;20135;-69
2022/10/18 00:47:15;;;;;;;4.60;2.00;;;;;;;1.53;70.63;97634.47;6296669;28;20457;-69
2022/10/18 00:50:21;;;;;;;4.10;2.78;;;;;;;1.33;70.47;97633.06;6296330;28;20044;-69
2022/10/18 00:53:25;;;;;;;3.70;3.40;;;;;;;1.18;70.10;97622.91;6296562;28;20041;-69
2022/10/18 00:56:27;;;;;;;3.22;2.92;;;;;;;1.05;70.86;97616.25;6295742;28;20444;-69
2022/10/18 00:59:34;;;;;;;4.30;2.90;;;;;;;0.84;71.59;97628.59;6296198;28;20528;-69
2022/10/18 01:02:43;;;;;;;4.10;2.67;;;;;;;0.93;71.44;97634.53;6296324;28;20190;-70
2022/10/18 01:05:47;;;;;;;3.22;2.65;;;;;;;0.95;72.11;97630.19;6296180;28;20049;-70
2022/10/18 01:09:25;;;;;;;3.55;3.05;;;;;;;1.05;71.91;97634.38;6295798;28;20082;-69
2022/10/18 01:12:36;;;;;;;5.28;3.50;;;;;;;0.96;72.08;97617.19;6295932;28;20052;-69
2022/10/18 01:15:51;;;;;;;4.38;3.00;;;;;;;1.04;72.39;97620.53;6296092;28;20055;-69
2022/10/18 01:18:59;;;;;;;4.55;2.85;;;;;;;1.08;72.51;97605.81;6296025;28;20052;-69
2022/10/18 01:22:08;;;;;;;3.25;2.38;;;;;;;1.14;72.47;97610.91;6296151;28;20135;-69
2022/10/18 01:25:35;;;;;;;4.45;2.92;;;;;;;1.23;72.04;97605.56;6294472;28;20518;-69
2022/10/18 01:28:55;;;;;;;3.13;2.60;;;;;;;1.21;72.46;97609.06;6295651;28;20048;-69
2022/10/18 01:32:03;;;;;;;2.85;1.98;;;;;;;1.25;72.43;97609.00;6295979;28;20040;-69
2022/10/18 01:35:12;;;;;;;2.90;2.22;;;;;;;1.31;72.38;97598.53;6295804;28;20075;-69
2022/10/18 01:38:18;;;;;;;2.75;2.35;;;;;;;1.33;71.99;97591.59;6295502;28;20040;-69
2022/10/18 01:41:23;;;;;;;3.90;2.30;;;;;;;1.15;72.13;97596.19;6295683;28;20541;-68
2022/10/18 01:44:28;;;;;;;2.88;2.30;;;;;;;1.15;71.72;97589.28;6295154;28;20067;-68
2022/10/18 01:47:29;;;;;;;2.97;2.72;;;;;;;1.09;71.13;97586.78;6294315;28;20092;-69
2022/10/18 01:50:35;;;;;;;2.60;2.40;;;;;;;0.94;70.84;97582.72;6294530;28;20044;-68
2022/10/18 01:53:44;;;;;;;2.40;2.17;;;;;;;0.77;71.51;97577.78;6295477;28;20490;-69
2022/10/18 01:57:22;;;;;;;4.47;2.78;;;;;;;0.74;71.35;97580.41;6295326;28;20040;-70
2022/10/18 02:00:34;;;;;;;3.83;2.63;;;;;;;0.79;70.81;97576.03;6294900;28;20426;-69
2022/10/18 02:03:42;;;;;;;2.45;2.15;;;;;;;0.75;71.57;97576.09;6295036;28;20538;-68
2022/10/18 02:06:47;;;;;;;2.83;2.17;;;;;;;0.98;71.68;97567.97;6295527;28;20064;-69
2022/10/18 02:10:17;;;;;;;4.00;2.05;;;;;;;1.11;71.69;97572.06;6295245;28;20051;-69
2022/10/18 02:13:24;;;;;;;3.67;2.20;;;;;;;1.06;71.90;97566.94;6295065;28;20048;-70
2022/10/18 02:16:50;;;;;;;3.17;2.63;;;;;;;1.24;71.53;97570.13;6294038;28;20064;-70
2022/10/18 02:19:59;;;;;;;2.60;2.40;;;;;;;1.39;70.87;97561.22;6295088;28;20052;-70
2022/10/18 02:23:02;;;;;;;3.78;2.90;;;;;;;1.40;70.77;97556.03;6295007;28;20055;-69
2022/10/18 02:26:08;;;;;;;2.67;2.22;;;;;;;1.33;71.03;97564.78;6295037;28;20135;-70
2022/10/18 02:29:11;;;;;;;3.80;2.70;;;;;;;1.34;70.79;97558.72;6294929;28;20485;-70
2022/10/18 02:32:36;;;;;;;2.40;2.17;;;;;;;1.42;70.36;97556.84;6294777;28;20037;-70
2022/10/18 02:35:46;;;;;;;3.47;2.38;;;;;;;1.31;70.33;97546.66;6294627;28;20139;-69
2022/10/18 02:38:53;;;;;;;3.95;2.85;;;;;;;1.21;70.45;97537.31;6293997;28;20517;-69
2022/10/18 02:41:57;;;;;;;4.28;3.20;;;;;;;1.09;71.01;97542.72;6294645;28;20059;-69
2022/10/18 02:44:58;;;;;;;3.78;2.60;;;;;;;0.93;71.22;97534.34;6294399;28;20068;-69
2022/10/18 02:48:03;;;;;;;2.53;2.05;;;;;;;1.02;70.25;97539.38;6294695;28;20194;-69
2022/10/18 02:51:07;;;;;;;2.63;2.17;;;;;;;1.09;70.00;97537.53;6294538;28;20040;-68
2022/10/18 02:54:08;;;;;;;4.05;3.13;;;;;;;1.04;70.30;97539.34;6294943;28;20098;-69
2022/10/18 02:57:12;;;;;;;3.92;3.38;;;;;;;1.16;70.48;97531.38;6296609;28;20425;-69
2022/10/18 03:00:16;;;;;;;5.43;3.45;;;;;;;1.27;70.49;97508.69;6299058;28;20414;-69
2022/10/18 03:03:20;;;;;;;5.28;4.03;;;;;;;1.52;70.89;97523.81;6298986;28;20044;-69
2022/10/18 03:06:24;;;;;;;7.10;4.20;;;;;;;1.79;70.97;97523.31;6298407;28;20051;-69
2022/10/18 03:09:26;;;;;;;5.90;4.22;;;;;;;2.18;70.03;97525.97;6298522;28;20063;-69
2022/10/18 03:12:29;;;;;;;6.20;4.07;;;;;;;2.36;69.79;97522.13;6298788;28;20048;-69
2022/10/18 03:15:31;;;;;;;6.88;3.95;;;;;;;2.43;69.16;97523.69;6298766;28;20033;-69
2022/10/18 03:18:33;;;;;;;7.15;4.47;;;;;;;2.43;69.01;97515.91;6298508;28;20185;-69
2022/10/18 03:21:37;;;;;;;3.58;2.58;;;;;;;2.46;68.95;97521.06;6298469;28;20044;-68
2022/10/18 03:24:38;;;;;;;4.78;2.72;;;;;;;2.43;68.65;97522.84;6298247;28;20371;-68
2022/10/18 03:27:40;;;;;;;3.78;2.38;;;;;;;2.49;68.28;97509.72;6298307;28;20048;-68
2022/10/18 03:30:41;;;;;;;3.75;2.92;;;;;;;2.43;68.81;97507.25;6297978;28;20055;-69
2022/10/18 03:33:46;;;;;;;2.95;2.33;;;;;;;2.36;68.87;97496.16;6298339;28;20460;-69
2022/10/18 03:36:47;;;;;;;4.10;3.30;;;;;;;2.48;68.73;97502.81;6296849;28;20050;-70
2022/10/18 03:39:51;;;;;;;4.10;2.72;;;;;;;2.75;67.42;97492.69;6298265;28;20189;-70
2022/10/18 03:42:54;;;;;;;2.65;2.03;;;;;;;3.15;66.25;97496.00;6297792;28;20049;-68
2022/10/18 03:45:59;;;;;;;4.82;3.60;;;;;;;3.35;65.28;97490.28;6297644;28;20489;-68
2022/10/18 03:49:00;;;;;;;4.88;3.90;;;;;;;3.51;64.91;97497.69;6297754;28;20044;-69
2022/10/18 03:52:02;;;;;;;4.05;3.25;;;;;;;3.63;64.30;97496.50;6297460;28;20052;-69
2022/10/18 03:55:03;;;;;;;3.30;2.97;;;;;;;3.72;64.44;97504.06;6297967;28;20549;-69
2022/10/18 03:58:05;;;;;;;3.42;3.13;;;;;;;3.98;63.48;97493.75;6297485;28;20045;-70
2022/10/18 04:01:07;;;;;;;2.95;2.58;;;;;;;4.23;62.42;97493.06;6297638;28;20060;-69
2022/10/18 04:04:10;;;;;;;3.53;2.80;;;;;;;4.25;62.38;97483.44;6297596;28;20041;-69
2022/10/18 04:07:15;;;;;;;3.58;2.50;;;;;;;4.23;62.85;97472.22;6297858;28;20532;-69
2022/10/18 04:10:22;;;;;;;3.33;3.00;;;;;;;4.31;62.93;97480.66;6297392;28;20040;-69
2022/10/18 04:13:26;;;;;;;4.38;3.35;;;;;;;4.48;62.50;97473.19;6297375;28;20048;-69
2022/10/18 04:16:27;;;;;;;5.20;3.65;;;;;;;4.45;62.79;97468.06;6297396;28;20043;-69
2022/10/18 04:19:29;;;;;;;4.10;3.58;;;;;;;4.56;62.94;97469.47;6297198;28;20194;-69
2022/10/18 04:22:30;;;;;;;8.25;4.80;;;;;;;4.87;62.65;97470.22;6297181;28;20060;-69
2022/10/18 04:25:32;;;;;;;17.08;10.30;;;;;;;5.05;62.04;97467.91;6296919;28;20033;-69
2022/10/18 04:28:38;;;;;;;7.22;4.90;;;;;;;5.23;61.97;97467.25;6296992;28;20064;-70
2022/10/18 04:31:40;;;;;;;4.20;3.00;;;;;;;5.56;60.68;97453.97;6296891;28;20052;-69
2022/10/18 04:34:42;;;;;;;5.45;3.65;;;;;;;5.76;60.10;97458.47;6296567;28;20048;-69
2022/10/18 04:37:45;;;;;;;6.45;3.25;;;;;;;5.90;59.57;97432.69;6296608;28;20051;-71
2022/10/18 04:40:49;;;;;;;2.58;2.38;;;;;;;6.52;58.04;97441.69;6296575;28;20048;-69
2022/10/18 04:43:54;;;;;;;2.95;2.67;;;;;;;6.77;56.59;97440.72;6296604;28;20082;-68
2022/10/18 04:46:55;;;;;;;4.22;3.40;;;;;;;6.82;56.46;97436.13;6296843;28;20142;-69
2022/10/18 04:49:56;;;;;;;2.80;2.60;;;;;;;6.92;55.96;97435.69;6296018;28;20048;-69
2022/10/18 04:53:00;;;;;;;4.47;3.25;;;;;;;7.02;56.12;97438.78;6296621;28;20044;-69
2022/10/18 04:56:01;;;;;;;3.72;3.42;;;;;;;7.27;55.43;97442.97;6294310;28;20422;-69
2022/10/18 04:59:03;;;;;;;5.93;4.38;;;;;;;7.52;54.43;97443.63;6296360;28;20060;-68
2022/10/18 05:02:04;;;;;;;3.63;3.33;;;;;;;7.76;52.50;97433.00;6296295;28;20090;-68
2022/10/18 05:05:10;;;;;;;4.15;3.15;;;;;;;7.81;51.18;97437.13;6296071;28;20040;-68
2022/10/18 05:08:16;;;;;;;3.40;3.05;;;;;;;7.75;50.98;97441.75;6295783;28;20049;-70
2022/10/18 05:11:20;;;;;;;6.65;3.78;;;;;;;7.92;50.50;97441.84;6295930;28;20551;-69
2022/10/18 05:14:22;;;;;;;3.70;3.30;;;;;;;8.20;50.31;97427.50;6295565;28;20541;-69
2022/10/18 05:17:23;;;;;;;3.85;3.17;;;;;;;8.35;49.00;97425.91;6295011;28;20045;-69
2022/10/18 05:20:25;;;;;;;4.10;2.85;;;;;;;9.49;46.98;97415.97;6294977;28;20044;-69
2022/10/18 05:23:26;;;;;;;5.18;3.20;;;;;;;10.30;45.07;97415.13;6295508;28;20049;-70
2022/10/18 05:26:27;;;;;;;4.07;3.25;;;;;;;10.11;43.94;97411.78;6295549;28;20040;-71
2022/10/18 05:29:29;;;;;;;2.95;2.67;;;;;;;9.78;44.50;97420.53;6295674;28;20045;-69
2022/10/18 05:32:33;;;;;;;3.65;3.15;;;;;;;11.24;42.70;97402.75;6295422;28;20036;-69
2022/10/18 05:35:36;;;;;;;;;;;;;;;14.80;37.19;97413.66;6295409;28;20186;-68
2022/10/18 05:38:41;;;;;;;2.70;2.25;;;;;;;16.39;32.36;97407.75;6295677;28;20413;-69
2022/10/18 05:41:43;;;;;;;2.40;2.10;;;;;;;17.41;30.89;97406.47;6294754;28;20056;-69
2022/10/18 05:44:44;;;;;;;1.85;1.70;;;;;;;19.72;29.25;97413.63;6295499;28;20041;-69
2022/10/18 05:47:46;;;;;;;2.80;2.53;;;;;;;19.92;26.24;97409.09;6294065;28;20090;-69
2022/10/18 05:50:49;;;;;;;;;;;;;;;21.32;25.84;97414.28;6295565;28;20044;-69
2022/10/18 05:53:55;;;;;;;2.30;1.83;;;;;;;21.75;24.01;97400.91;6295253;28;19920;-68
2022/10/18 05:56:57;;;;;;;4.35;1.85;;;;;;;21.56;23.08;97401.09;6294827;28;20159;-69
2022/10/18 05:59:58;;;;;;;2.15;1.48;;;;;;;21.66;22.78;97406.38;6293708;28;20048;-69
2022/10/18 06:03:03;;;;;;;3.20;1.95;;;;;;;19.91;24.23;97396.72;6294900;28;20217;-69
2022/10/18 06:06:07;;;;;;;2.35;1.65;;;;;;;19.13;25.80;97401.28;6295039;28;20529;-68
2022/10/18 06:09:08;;;;;;;3.58;1.42;;;;;;;18.61;26.31;97386.31;6295149;28;20032;-69
2022/10/18 06:12:12;;;;;;;2.20;2.00;;;;;;;18.16;26.83;97397.38;6295309;28;20044;-69
2022/10/18 06:15:14;;;;;;;2.13;1.70;;;;;;;16.71;28.60;97391.84;6293828;28;20532;-70
2022/10/18 06:18:15;;;;;;;2.20;1.65;;;;;;;16.05;29.32;97389.19;6294693;28;20400;-69
2022/10/18 06:21:21;;;;;;;;;;;;;;;15.40;30.61;97387.09;6295272;28;20565;-68
2022/10/18 06:24:26;;;;;;;2.17;2.03;;;;;;;14.99;31.54;97393.72;6294322;28;20019;-70
2022/10/18 06:27:32;;;;;;;1.83;1.73;;;;;;;15.79;30.60;97366.47;6295142;28;20040;-70
2022/10/18 06:30:35;;;;;;;2.15;1.95;;;;;;;17.89;27.73;97379.34;6294658;28;20044;-69
2022/10/18 06:33:40;;;;;;;3.47;1.92;;;;;;;19.17;26.36;97386.69;6299476;28;20048;-68
2022/10/18 06:36:44;;;;;;;2.40;2.17;;;;;;;18.97;25.55;97367.19;6299944;28;20048;-69
2022/10/18 06:39:48;;;;;;;3.15;1.98;;;;;;;16.41;29.07;97360.63;6299165;28;20055;-69
2022/10/18 06:42:53;;;;;;;2.20;1.60;;;;;;;14.97;31.37;97342.66;6299100;28;20474;-69
2022/10/18 06:45:58;;;;;;;1.48;1.38;;;;;;;16.11;29.96;97359.47;6298250;28;20071;-68
2022/10/18 06:48:59;;;;;;;2.70;2.23;;;;;;;15.56;30.35;97350.50;6298964;28;20049;-69
2022/10/18 06:52:06;;;;;;;1.73;1.52;;;;;;;13.64;33.47;97340.75;6299124;28;20466;-69
2022/10/18 06:55:08;;;;;;;1.92;1.70;;;;;;;11.93;35.98;97358.19;6298909;28;20040;-69
2022/10/18 06:58:11;;;;;;;2.00;1.70;;;;;;;11.19;37.29;97344.22;6298999;28;20055;-69
2022/10/18 07:01:17;;;;;;;3.22;2.05;;;;;;;10.81;38.15;97366.69;6298941;28;20057;-68
2022/10/18 07:04:20;;;;;;;3.78;2.03;;;;;;;10.27;38.94;97357.41;6298921;28;20528;-70
2022/10/18 07:07:22;;;;;;;3.15;2.38;;;;;;;9.96;39.77;97354.75;6299034;28;20505;-70
2022/10/18 07:10:26;;;;;;;3.35;2.70;;;;;;;9.50;40.68;97370.38;6298876;28;20040;-70
2022/10/18 07:13:29;;;;;;;6.40;5.43;;;;;;;9.49;40.71;97384.44;6298351;28;20046;-70
2022/10/18 07:16:36;;;;;;;6.65;4.40;;;;;;;9.71;40.45;97364.00;6298387;28;20036;-70
2022/10/18 07:19:41;;;;;;;3.70;2.67;;;;;;;9.58;40.34;97368.19;6298178;28;20048;-70
2022/10/18 07:22:47;;;;;;;3.28;2.90;;;;;;;9.45;40.68;97373.22;6298311;28;20047;-68
2022/10/18 07:25:53;;;;;;;4.95;2.80;;;;;;;9.36;41.00;97361.44;6298203;28;20040;-68
2022/10/18 07:29:01;;;;;;;5.65;3.08;;;;;;;9.40;40.56;97347.22;6297754;28;20040;-70
2022/10/18 07:32:02;;;;;;;5.45;3.17;;;;;;;9.57;40.31;97350.75;6298336;28;20118;-70
2022/10/18 07:35:04;;;;;;;4.70;2.38;;;;;;;9.47;40.45;97331.97;6297699;28;20425;-70
2022/10/18 07:38:10;;;;;;;3.83;2.90;;;;;;;9.27;40.84;97322.53;6297969;28;20490;-69
2022/10/18 07:41:13;;;;;;;3.10;2.80;;;;;;;9.29;40.79;97315.41;6296041;28;20048;-70
2022/10/18 07:44:14;;;;;;;3.60;3.00;;;;;;;9.40;40.50;97326.22;6297579;28;20048;-69
2022/10/18 07:47:16;;;;;;;6.47;3.80;;;;;;;9.40;40.13;97313.06;6297602;28;20086;-69
2022/10/18 07:50:18;;;;;;;3.45;2.83;;;;;;;9.35;40.69;97311.63;6298203;28;20514;-69
2022/10/18 07:53:19;;;;;;;4.53;2.60;;;;;;;9.32;40.40;97301.28;6297714;28;20052;-68
2022/10/18 07:56:24;;;;;;;4.10;2.80;;;;;;;9.15;40.96;97304.78;6297653;28;20059;-69
2022/10/18 07:59:28;;;;;;;4.22;2.65;;;;;;;9.22;41.07;97288.63;6297189;28;20498;-69
2022/10/18 08:02:29;;;;;;;4.53;3.03;;;;;;;9.34;41.07;97291.53;6297368;28;20053;-69
2022/10/18 08:05:31;;;;;;;5.97;3.45;;;;;;;9.90;40.17;97283.19;6297278;28;20036;-69
2022/10/18 08:08:33;;;;;;;4.22;3.10;;;;;;;11.12;37.96;97271.75;6297446;28;20406;-69
2022/10/18 08:11:40;;;;;;;3.58;2.85;;;;;;;12.66;35.37;97268.16;6297255;28;20051;-69
2022/10/18 08:14:41;;;;;;;;;;;;;;;15.04;32.03;97269.69;6297467;28;20532;-68
2022/10/18 08:17:43;;;;;;;4.22;3.05;;;;;;;15.90;30.26;97270.94;6296074;28;19928;-68
2022/10/18 08:20:46;;;;;;;4.10;3.00;;;;;;;16.71;28.65;97260.81;6296881;28;20048;-70
2022/10/18 08:23:48;;;;;;;4.28;2.60;;;;;;;16.25;29.27;97261.94;6296947;28;20053;-68
2022/10/18 08:26:52;;;;;;;5.25;2.50;;;;;;;16.74;28.31;97255.22;6296646;28;20048;-69
2022/10/18 08:29:58;;;;;;;3.95;2.78;;;;;;;17.24;27.57;97260.78;6296617;28;20041;-69
2022/10/18 08:33:00;;;;;;;3.47;2.50;;;;;;;18.76;25.76;97248.16;6297183;28;20139;-69
2022/10/18 08:36:06;;;;;;;3.75;2.30;;;;;;;20.01;24.15;97250.59;6296903;28;20044;-70
2022/10/18 08:39:08;;;;;;;3.22;2.05;;;;;;;21.29;23.04;97254.84;6296512;28;20044;-69
2022/10/18 08:42:43;;;;;;;3.75;2.20;;;;;;;20.36;23.54;97252.50;6296221;28;20538;-68
2022/10/18 08:45:44;;;;;;;5.22;2.25;;;;;;;17.99;26.12;97238.25;6296721;28;20053;-69
2022/10/18 08:48:53;;;;;;;3.35;2.30;;;;;;;16.61;27.90;97232.31;6296590;28;20131;-68
2022/10/18 08:51:57;;;;;;;5.03;3.50;;;;;;;15.33;29.94;97243.56;6296398;28;20043;-69
2022/10/18 08:55:05;;;;;;;4.40;3.05;;;;;;;14.80;30.85;97230.88;6294218;28;20532;-69
2022/10/18 08:58:25;;;;;;;3.90;2.42;;;;;;;13.82;32.15;97227.53;6296052;28;20056;-69
2022/10/18 09:01:41;;;;;;;2.95;2.20;;;;;;;13.04;33.59;97247.03;6295847;28;20478;-69
2022/10/18 09:04:50;;;;;;;3.95;3.17;;;;;;;12.64;34.29;97242.81;6295922;28;20070;-69
2022/10/18 09:08:20;;;;;;;2.63;2.42;;;;;;;11.99;35.59;97252.31;6296120;28;20076;-69
2022/10/18 09:11:53;;;;;;;3.30;3.00;;;;;;;11.28;36.70;97228.69;6296017;28;20043;-68
2022/10/18 09:15:06;;;;;;;3.55;3.05;;;;;;;11.18;37.17;97233.66;6295851;28;20048;-70
2022/10/18 09:18:17;;;;;;;3.30;2.88;;;;;;;10.97;37.78;97227.94;6295849;28;20070;-69
2022/10/18 09:21:51;;;;;;;3.63;3.15;;;;;;;11.01;37.73;97205.72;6295436;28;20048;-68
2022/10/18 09:25:02;;;;;;;3.78;3.33;;;;;;;10.56;38.48;97204.97;6290880;28;20497;-69
2022/10/18 09:28:12;;;;;;;3.90;3.03;;;;;;;10.19;39.37;97204.47;6295581;28;20426;-69
2022/10/18 09:31:50;;;;;;;3.53;2.95;;;;;;;10.84;38.35;97198.91;6295473;28;20070;-69
2022/10/18 09:34:56;;;;;;;4.38;3.20;;;;;;;12.25;35.66;97178.53;6295301;28;20129;-71
2022/10/18 09:38:10;;;;;;;3.10;2.80;;;;;;;12.91;34.33;97196.03;6295374;28;20044;-69
2022/10/18 09:41:26;;;;;;;3.07;2.77;;;;;;;12.62;34.27;97173.41;6295150;28;20049;-69
2022/10/18 09:44:53;;;;;;;5.20;2.58;;;;;;;12.04;35.18;97173.75;6295695;28;20052;-68
2022/10/18 09:48:10;;;;;;;4.20;2.67;;;;;;;11.20;36.50;97164.16;6295480;28;20041;-68
2022/10/18 09:51:22;;;;;;;3.25;2.92;;;;;;;10.71;37.49;97161.94;6295391;28;20040;-70
2022/10/18 09:54:33;;;;;;;3.03;2.60;;;;;;;10.38;38.31;97158.69;6295432;28;20055;-69
2022/10/18 09:57:51;;;;;;;3.67;3.17;;;;;;;10.21;38.65;97142.09;6295090;28;20510;-69
2022/10/18 10:00:54;;;;;;;3.38;3.08;;;;;;;10.16;38.96;97138.88;6295389;28;20166;-69
2022/10/18 10:03:58;;;;;;;3.22;2.80;;;;;;;10.29;38.88;97155.66;6293868;28;20525;-70
2022/10/18 10:07:08;;;;;;;3.30;3.00;;;;;;;10.28;38.92;97143.47;6299098;28;20421;-71
2022/10/18 10:10:15;;;;;;;3.92;2.75;;;;;;;10.44;38.79;97142.53;6300339;28;20421;-68
2022/10/18 10:13:26;;;;;;;2.80;2.50;;;;;;;10.59;38.33;97149.53;6300018;28;20423;-69
2022/10/18 10:16:31;;;;;;;3.60;3.30;;;;;;;10.53;38.37;97136.72;6299750;28;20041;-69
2022/10/18 10:19:36;;;;;;;3.70;2.15;;;;;;;10.42;38.61;97149.69;6299824;28;20076;-68
2022/10/18 10:22:40;;;;;;;4.30;3.05;;;;;;;10.44;38.73;97147.78;6299318;28;20051;-70
2022/10/18 10:25:41;;;;;;;;;;;;;;;10.56;38.34;97132.13;6299522;28;20063;-70
2022/10/18 10:28:47;;;;;;;5.40;3.42;;;;;;;10.57;38.26;97130.34;6299964;28;19920;-70
2022/10/18 10:32:02;;;;;;;4.57;3.30;;;;;;;11.20;37.21;97132.53;6300076;28;20048;-69
2022/10/18 10:35:23;;;;;;;4.10;2.95;;;;;;;11.21;37.29;97157.13;6299561;28;20052;-69
2022/10/18 10:38:28;;;;;;;3.70;2.78;;;;;;;11.43;36.76;97140.78;6299535;28;20946;-69
2022/10/18 10:41:34;;;;;;;2.50;2.33;;;;;;;11.63;36.59;97119.28;6299353;28;20056;-69
2022/10/18 10:44:48;;;;;;;5.85;2.80;;;;;;;11.65;36.53;97133.19;6299676;28;20049;-69
2022/10/18 10:47:52;;;;;;;6.25;3.60;;;;;;;11.74;36.44;97125.63;6299217;28;20201;-68
2022/10/18 10:51:07;;;;;;;5.38;3.65;;;;;;;11.81;36.27;97114.56;6299540;28;20674;-69
2022/10/18 10:54:19;;;;;;;3.05;2.45;;;;;;;11.71;36.53;97110.00;6299165;28;20135;-69
2022/10/18 10:57:26;;;;;;;4.38;2.30;;;;;;;11.24;37.23;97107.72;6298878;28;20048;-70
2022/10/18 11:00:43;;;;;;;2.90;2.33;;;;;;;11.09;37.65;97107.84;6299021;28;20409;-69
2022/10/18 11:03:46;;;;;;;4.75;2.70;;;;;;;10.72;38.45;97089.91;6299265;28;20033;-69
2022/10/18 11:06:56;;;;;;;5.15;2.60;;;;;;;10.23;39.38;97086.78;6298946;28;20458;-69
2022/10/18 11:10:09;;;;;;;2.65;2.15;;;;;;;9.97;39.71;97086.56;6298945;28;20041;-69
2022/10/18 11:13:34;;;;;;;3.47;2.17;;;;;;;9.75;40.14;97086.97;6298578;28;20052;-69
2022/10/18 11:16:48;;;;;;;2.60;2.10;;;;;;;9.20;40.93;97077.00;6297985;28;20049;-68
2022/10/18 11:20:10;;;;;;;3.22;2.10;;;;;;;9.06;41.51;97077.75;6298620;28;20048;-69
2022/10/18 11:23:14;;;;;;;2.47;1.90;;;;;;;9.23;41.01;97084.69;6298315;28;20049;-70
2022/10/18 11:26:36;;;;;;;2.35;2.13;;;;;;;9.08;41.00;97080.28;6298417;28;20036;-69
2022/10/18 11:30:01;;;;;;;3.10;2.28;;;;;;;8.76;41.82;97080.28;6298524;28;20047;-69
2022/10/18 11:33:42;;;;;;;2.72;2.53;;;;;;;8.61;42.36;97070.63;6298487;28;20430;-69
2022/10/18 11:37:14;;;;;;;3.58;2.40;;;;;;;8.64;42.21;97075.69;6298327;28;20040;-69
2022/10/18 11:40:42;;;;;;;2.47;1.77;;;;;;;8.65;42.41;97070.34;6298180;28;20223;-70
2022/10/18 11:44:00;;;;;;;3.05;2.45;;;;;;;8.45;42.38;97055.69;6297881;28;20044;-69
2022/10/18 11:47:11;;;;;;;3.83;2.65;;;;;;;8.26;43.03;97055.78;6298211;28;20525;-70
2022/10/18 11:50:32;;;;;;;2.75;2.45;;;;;;;7.93;43.93;97047.91;6297974;28;20457;-69
2022/10/18 11:54:21;;;;;;;3.08;2.60;;;;;;;8.19;43.26;97048.34;6297777;28;20040;-70
2022/10/18 11:57:33;;;;;;;3.00;2.05;;;;;;;8.00;43.74;97058.91;6266265;28;20052;-69
2022/10/18 12:00:51;;;;;;;4.30;2.70;;;;;;;7.64;44.18;97052.88;6297324;28;20052;-69
2022/10/18 12:04:02;;;;;;;3.83;2.95;;;;;;;7.48;44.53;97045.84;6297568;28;20187;-69
2022/10/18 12:07:06;;;;;;;3.50;3.20;;;;;;;7.31;45.24;97033.59;6296908;28;20044;-68
2022/10/18 12:10:16;;;;;;;4.10;2.72;;;;;;;7.40;45.17;97038.38;6297046;28;20036;-69
2022/10/18 12:13:28;;;;;;;2.70;2.50;;;;;;;7.47;45.24;97041.53;6296610;28;20134;-69
2022/10/18 12:16:36;;;;;;;2.63;2.33;;;;;;;7.18;45.86;97038.56;6296685;28;20044;-69
2022/10/18 12:19:42;;;;;;;4.38;2.75;;;;;;;7.14;46.00;97027.41;6296737;28;20102;-70
2022/10/18 12:23:23;;;;;;;2.35;1.98;;;;;;;7.08;46.24;97043.41;6296668;28;20051;-69
2022/10/18 12:26:27;;;;;;;3.58;3.25;;;;;;;6.79;46.89;97051.78;6291131;28;20078;-69
2022/10/18 12:29:46;;;;;;;3.75;2.90;;;;;;;6.86;47.11;97046.19;6296770;28;20502;-69
2022/10/18 12:32:58;;;;;;;4.70;3.63;;;;;;;6.75;47.36;97046.69;6296654;28;20110;-69
2022/10/18 12:36:25;;;;;;;4.95;3.30;;;;;;;6.78;47.22;97034.41;6295430;28;20047;-69
2022/10/18 12:40:05;;;;;;;7.65;4.78;;;;;;;6.85;47.21;97036.66;6294996;28;20067;-69
2022/10/18 12:43:21;;;;;;;3.58;3.28;;;;;;;6.81;47.28;97031.63;6296079;28;20056;-69
2022/10/18 12:46:22;;;;;;;4.93;3.72;;;;;;;6.84;47.45;97023.66;6296067;28;20058;-69
2022/10/18 12:49:27;;;;;;;5.55;3.30;;;;;;;6.86;47.17;97022.66;6295858;28;20048;-69
2022/10/18 12:52:35;;;;;;;4.43;3.38;;;;;;;6.71;47.31;97019.00;6296191;28;20093;-69
2022/10/18 12:55:45;;;;;;;6.50;3.97;;;;;;;6.70;47.64;97022.53;6296230;28;20493;-69
2022/10/18 12:58:47;;;;;;;6.55;4.05;;;;;;;6.68;47.53;97019.16;6296347;28;20067;-69
2022/10/18 13:01:51;;;;;;;6.38;4.20;;;;;;;6.64;47.75;97014.97;6295982;28;20052;-69
2022/10/18 13:04:55;;;;;;;7.82;4.53;;;;;;;6.57;47.90;97010.97;6295918;28;20102;-70
2022/10/18 13:08:27;;;;;;;6.40;4.47;;;;;;;6.54;48.46;97003.25;6296011;28;20045;-70
2022/10/18 13:11:34;;;;;;;4.32;3.03;;;;;;;6.52;48.68;97012.94;6295794;28;20040;-70
2022/10/18 13:14:55;;;;;;;3.65;2.90;;;;;;;6.38;48.97;96997.03;6296005;28;20561;-70
2022/10/18 13:18:13;;;;;;;5.50;3.40;;;;;;;6.30;49.77;97003.47;6295712;28;20041;-70
2022/10/18 13:21:24;;;;;;;4.20;3.42;;;;;;;6.06;50.56;97000.22;6295455;28;20052;-69
2022/10/18 13:24:38;;;;;;;2.80;2.55;;;;;;;6.13;50.17;97000.75;6295744;28;20044;-70
2022/10/18 13:27:59;;;;;;;3.55;3.25;;;;;;;6.21;50.23;96989.97;6295337;28;20040;-70
2022/10/18 13:31:42;;;;;;;5.90;3.50;;;;;;;6.12;50.93;96993.84;6295626;28;20040;-70
2022/10/18 13:34:44;;;;;;;4.75;3.10;;;;;;;5.91;51.21;96979.09;6296600;28;20185;-70
2022/10/18 13:38:19;;;;;;;4.28;3.67;;;;;;;5.92;51.27;96975.59;6295443;28;20040;-70
2022/10/18 13:41:30;;;;;;;2.25;1.85;;;;;;;5.88;51.79;96989.69;6293059;28;20507;-69
2022/10/18 13:44:38;;;;;;;4.32;3.40;;;;;;;5.76;52.06;96980.63;6295203;28;20040;-69
2022/10/18 13:47:40;;;;;;;3.08;2.78;;;;;;;5.87;51.76;96982.78;6297041;28;20521;-68
2022/10/18 13:50:46;;;;;;;4.38;3.53;;;;;;;5.87;51.96;96982.78;6295345;28;20131;-70
2022/10/18 13:54:29;;;;;;;3.83;3.40;;;;;;;5.80;51.91;96967.38;6295274;28;20417;-70
2022/10/18 13:58:02;;;;;;;4.07;3.63;;;;;;;5.63;52.39;96983.78;6295061;28;20040;-69
2022/10/18 14:01:19;;;;;;;3.85;3.05;;;;;;;5.59;52.55;96969.16;6284969;28;20048;-70
2022/10/18 14:04:34;;;;;;;6.70;4.32;;;;;;;5.50;53.05;96976.56;6295176;28;20471;-69
2022/10/18 14:07:37;;;;;;;7.05;5.00;;;;;;;5.49;53.37;96977.44;6295044;28;20054;-70
2022/10/18 14:11:10;;;;;;;8.52;5.35;;;;;;;5.61;53.37;96975.16;6294950;28;20049;-70
2022/10/18 14:14:44;;;;;;;4.60;3.85;;;;;;;5.61;52.74;96974.31;6286275;28;20048;-70
2022/10/18 14:18:12;;;;;;;5.15;3.42;;;;;;;5.75;52.53;96979.78;6294953;28;20125;-69
2022/10/18 14:21:22;;;;;;;4.70;3.53;;;;;;;5.77;52.65;96980.56;6294544;28;20040;-69
2022/10/18 14:24:26;;;;;;;3.58;3.25;;;;;;;6.10;51.74;96980.00;6294793;28;20044;-70
2022/10/18 14:27:34;;;;;;;3.63;3.33;;;;;;;5.82;52.30;96962.91;6293651;28;20055;-69
2022/10/18 14:30:51;;;;;;;3.90;3.60;;;;;;;5.93;52.55;96966.84;6294713;28;20442;-70
2022/10/18 14:33:56;;;;;;;4.20;3.17;;;;;;;5.92;52.14;96965.16;6294575;28;20052;-68
2022/10/18 14:36:58;;;;;;;3.80;2.80;;;;;;;5.83;52.96;96955.94;6294363;28;20041;-70
2022/10/18 14:40:03;;;;;;;4.93;4.05;;;;;;;5.62;53.42;96955.13;6294716;28;20048;-70
2022/10/18 14:43:08;;;;;;;4.10;3.70;;;;;;;5.30;54.18;96946.94;6294470;28;20520;-70
2022/10/18 14:46:25;;;;;;;5.45;3.85;;;;;;;5.25;54.56;96942.81;6294685;28;20041;-69
2022/10/18 14:49:30;;;;;;;6.68;4.20;;;;;;;5.25;55.06;96940.22;6295011;28;20102;-69
2022/10/18 14:52:33;;;;;;;5.35;4.55;;;;;;;4.92;55.58;96914.63;6295750;28;20060;-70
2022/10/18 14:55:36;;;;;;;4.43;3.65;;;;;;;4.87;56.10;96921.78;6299476;28;20040;-70
2022/10/18 14:58:41;;;;;;;4.88;4.28;;;;;;;4.82;56.11;96927.22;6299479;28;20450;-71